sensor_id;sensor_type;location;lat;lon;timestamp;pressure;altitude;pressure_sealevel;temperature;humidity
61528;BME280;47395;42.032;-8.634;2023-04-19T00:01:36;100244.06;;;13.06;69.45
61528;BME280;47395;42.032;-8.634;2023-04-19T00:03:37;100243.00;;;13.09;69.69
61528;BME280;47395;42.032;-8.634;2023-04-19T00:05:39;100245.72;;;13.07;69.55
61528;BME280;47395;42.032;-8.634;2023-04-19T00:07:41;100250.16;;;13.06;69.84
61528;BME280;47395;42.032;-8.634;2023-04-19T00:09:42;100241.69;;;13.01;69.67
61528;BME280;47395;42.032;-8.634;2023-04-19T00:11:42;100254.19;;;12.99;69.67
61528;BME280;47395;42.032;-8.634;2023-04-19T00:13:43;100250.69;;;12.99;69.92
61528;BME280;47395;42.032;-8.634;2023-04-19T00:15:44;100259.47;;;12.99;70.12
61528;BME280;47395;42.032;-8.634;2023-04-19T00:17:45;100258.00;;;12.95;70.08
61528;BME280;47395;42.032;-8.634;2023-04-19T00:19:46;100257.44;;;12.90;70.04
61528;BME280;47395;42.032;-8.634;2023-04-19T00:21:50;100253.22;;;12.87;70.16
61528;BME280;47395;42.032;-8.634;2023-04-19T00:23:51;100243.69;;;12.85;70.28
61528;BME280;47395;42.032;-8.634;2023-04-19T00:25:53;100247.59;;;12.79;70.50
61528;BME280;47395;42.032;-8.634;2023-04-19T00:27:54;100251.28;;;12.76;70.35
61528;BME280;47395;42.032;-8.634;2023-04-19T00:29:55;100248.09;;;12.71;70.82
61528;BME280;47395;42.032;-8.634;2023-04-19T00:31:59;100250.06;;;12.68;70.45
61528;BME280;47395;42.032;-8.634;2023-04-19T00:34:00;100248.56;;;12.63;70.20
61528;BME280;47395;42.032;-8.634;2023-04-19T00:36:03;100245.72;;;12.53;70.56
61528;BME280;47395;42.032;-8.634;2023-04-19T00:38:07;100246.63;;;12.52;70.13
61528;BME280;47395;42.032;-8.634;2023-04-19T00:40:08;100251.81;;;12.54;70.11
61528;BME280;47395;42.032;-8.634;2023-04-19T00:42:10;100248.34;;;12.53;69.96
61528;BME280;47395;42.032;-8.634;2023-04-19T00:44:12;100242.94;;;12.55;69.97
61528;BME280;47395;42.032;-8.634;2023-04-19T00:46:14;100245.72;;;12.53;69.95
61528;BME280;47395;42.032;-8.634;2023-04-19T00:48:15;100243.06;;;12.53;70.20
61528;BME280;47395;42.032;-8.634;2023-04-19T00:50:17;100244.00;;;12.52;70.25
61528;BME280;47395;42.032;-8.634;2023-04-19T00:52:19;100250.13;;;12.53;70.41
61528;BME280;47395;42.032;-8.634;2023-04-19T00:54:22;100238.81;;;12.51;70.54
61528;BME280;47395;42.032;-8.634;2023-04-19T00:56:25;100244.31;;;12.48;70.25
61528;BME280;47395;42.032;-8.634;2023-04-19T00:58:27;100242.72;;;12.45;70.52
61528;BME280;47395;42.032;-8.634;2023-04-19T01:00:31;100237.63;;;12.42;71.03
61528;BME280;47395;42.032;-8.634;2023-04-19T01:02:35;100238.66;;;12.39;70.95
61528;BME280;47395;42.032;-8.634;2023-04-19T01:04:37;100239.50;;;12.40;70.93
61528;BME280;47395;42.032;-8.634;2023-04-19T01:06:41;100238.56;;;12.41;70.83
61528;BME280;47395;42.032;-8.634;2023-04-19T01:08:44;100247.63;;;12.37;71.15
61528;BME280;47395;42.032;-8.634;2023-04-19T01:10:45;100237.25;;;12.34;70.99
61528;BME280;47395;42.032;-8.634;2023-04-19T01:12:46;100235.66;;;12.31;70.97
61528;BME280;47395;42.032;-8.634;2023-04-19T01:14:47;100234.94;;;12.29;71.15
61528;BME280;47395;42.032;-8.634;2023-04-19T01:16:51;100240.22;;;12.29;71.05
61528;BME280;47395;42.032;-8.634;2023-04-19T01:18:52;100238.59;;;12.26;71.78
61528;BME280;47395;42.032;-8.634;2023-04-19T01:20:54;100235.84;;;12.28;71.71
61528;BME280;47395;42.032;-8.634;2023-04-19T01:22:55;100242.00;;;12.29;71.64
61528;BME280;47395;42.032;-8.634;2023-04-19T01:24:57;100238.81;;;12.23;71.92
61528;BME280;47395;42.032;-8.634;2023-04-19T01:26:59;100237.22;;;12.21;71.99
61528;BME280;47395;42.032;-8.634;2023-04-19T01:29:02;100237.41;;;12.18;72.35
61528;BME280;47395;42.032;-8.634;2023-04-19T01:31:03;100234.13;;;12.14;72.58
61528;BME280;47395;42.032;-8.634;2023-04-19T01:33:03;100228.38;;;12.07;72.06
61528;BME280;47395;42.032;-8.634;2023-04-19T01:35:05;100233.03;;;12.02;72.06
61528;BME280;47395;42.032;-8.634;2023-04-19T01:37:06;100230.53;;;12.00;72.06
61528;BME280;47395;42.032;-8.634;2023-04-19T01:39:07;100221.94;;;11.97;72.38
61528;BME280;47395;42.032;-8.634;2023-04-19T01:41:08;100227.53;;;11.92;72.72
61528;BME280;47395;42.032;-8.634;2023-04-19T01:43:13;100230.16;;;11.92;72.62
61528;BME280;47395;42.032;-8.634;2023-04-19T01:45:14;100230.25;;;11.91;72.86
61528;BME280;47395;42.032;-8.634;2023-04-19T01:47:15;100226.84;;;11.88;73.04
61528;BME280;47395;42.032;-8.634;2023-04-19T01:49:16;100224.31;;;11.87;73.21
61528;BME280;47395;42.032;-8.634;2023-04-19T01:51:17;100223.47;;;11.86;73.48
61528;BME280;47395;42.032;-8.634;2023-04-19T01:53:18;100230.44;;;11.87;73.41
61528;BME280;47395;42.032;-8.634;2023-04-19T01:55:19;100226.09;;;11.86;73.13
61528;BME280;47395;42.032;-8.634;2023-04-19T01:57:20;100229.69;;;11.85;73.54
61528;BME280;47395;42.032;-8.634;2023-04-19T01:59:24;100232.44;;;11.84;73.46
61528;BME280;47395;42.032;-8.634;2023-04-19T02:01:25;100232.59;;;11.81;73.23
61528;BME280;47395;42.032;-8.634;2023-04-19T02:03:26;100231.00;;;11.78;72.85
61528;BME280;47395;42.032;-8.634;2023-04-19T02:05:27;100228.53;;;11.75;72.62
61528;BME280;47395;42.032;-8.634;2023-04-19T02:07:30;100217.34;;;11.71;72.42
61528;BME280;47395;42.032;-8.634;2023-04-19T02:09:36;100229.13;;;11.66;72.87
61528;BME280;47395;42.032;-8.634;2023-04-19T02:11:38;100223.09;;;11.64;73.05
61528;BME280;47395;42.032;-8.634;2023-04-19T02:13:39;100220.47;;;11.64;72.96
61528;BME280;47395;42.032;-8.634;2023-04-19T02:15:41;100221.28;;;11.64;73.14
61528;BME280;47395;42.032;-8.634;2023-04-19T02:17:43;100208.31;;;11.61;73.14
61528;BME280;47395;42.032;-8.634;2023-04-19T02:19:47;100207.63;;;11.57;72.94
61528;BME280;47395;42.032;-8.634;2023-04-19T02:21:48;100210.28;;;11.57;72.48
61528;BME280;47395;42.032;-8.634;2023-04-19T02:23:48;100208.66;;;11.55;72.88
61528;BME280;47395;42.032;-8.634;2023-04-19T02:25:50;100203.50;;;11.53;72.69
61528;BME280;47395;42.032;-8.634;2023-04-19T02:27:54;100207.06;;;11.52;72.75
61528;BME280;47395;42.032;-8.634;2023-04-19T02:29:58;100211.63;;;11.50;72.78
61528;BME280;47395;42.032;-8.634;2023-04-19T02:31:59;100206.50;;;11.47;72.77
61528;BME280;47395;42.032;-8.634;2023-04-19T02:33:59;100203.31;;;11.42;72.27
61528;BME280;47395;42.032;-8.634;2023-04-19T02:36:02;100211.41;;;11.39;72.31
61528;BME280;47395;42.032;-8.634;2023-04-19T02:38:04;100215.16;;;11.34;72.67
61528;BME280;47395;42.032;-8.634;2023-04-19T02:40:08;100206.50;;;11.32;72.83
61528;BME280;47395;42.032;-8.634;2023-04-19T02:42:09;100211.00;;;11.30;73.03
61528;BME280;47395;42.032;-8.634;2023-04-19T02:44:09;100215.63;;;11.27;73.13
61528;BME280;47395;42.032;-8.634;2023-04-19T02:46:10;100219.22;;;11.26;73.91
61528;BME280;47395;42.032;-8.634;2023-04-19T02:48:13;100225.41;;;11.25;73.75
61528;BME280;47395;42.032;-8.634;2023-04-19T02:50:16;100212.34;;;11.23;74.20
61528;BME280;47395;42.032;-8.634;2023-04-19T02:52:22;100214.13;;;11.22;74.71
61528;BME280;47395;42.032;-8.634;2023-04-19T02:54:23;100226.56;;;11.20;74.73
61528;BME280;47395;42.032;-8.634;2023-04-19T02:56:25;100221.38;;;11.19;74.73
61528;BME280;47395;42.032;-8.634;2023-04-19T02:58:26;100218.91;;;11.16;74.96
61528;BME280;47395;42.032;-8.634;2023-04-19T03:00:39;100217.97;;;11.17;75.10
61528;BME280;47395;42.032;-8.634;2023-04-19T03:02:44;100225.13;;;11.15;75.27
61528;BME280;47395;42.032;-8.634;2023-04-19T03:04:46;100222.41;;;11.16;75.61
61528;BME280;47395;42.032;-8.634;2023-04-19T03:06:48;100226.81;;;11.16;76.25
61528;BME280;47395;42.032;-8.634;2023-04-19T03:08:49;100223.44;;;11.14;76.20
61528;BME280;47395;42.032;-8.634;2023-04-19T03:10:52;100225.41;;;11.10;76.78
61528;BME280;47395;42.032;-8.634;2023-04-19T03:12:53;100224.81;;;11.05;76.68
61528;BME280;47395;42.032;-8.634;2023-04-19T03:14:54;100223.13;;;11.04;76.09
61528;BME280;47395;42.032;-8.634;2023-04-19T03:16:56;100222.44;;;11.00;76.43
61528;BME280;47395;42.032;-8.634;2023-04-19T03:18:57;100232.25;;;10.98;76.65
61528;BME280;47395;42.032;-8.634;2023-04-19T03:21:03;100223.00;;;10.91;75.72
61528;BME280;47395;42.032;-8.634;2023-04-19T03:23:10;100222.16;;;10.90;75.63
61528;BME280;47395;42.032;-8.634;2023-04-19T03:25:11;100226.66;;;10.88;75.81
61528;BME280;47395;42.032;-8.634;2023-04-19T03:27:13;100221.47;;;10.87;76.02
61528;BME280;47395;42.032;-8.634;2023-04-19T03:29:15;100220.81;;;10.83;76.26
61528;BME280;47395;42.032;-8.634;2023-04-19T03:31:21;100222.00;;;10.77;76.39
61528;BME280;47395;42.032;-8.634;2023-04-19T03:33:24;100221.19;;;10.77;76.64
61528;BME280;47395;42.032;-8.634;2023-04-19T03:35:26;100222.00;;;10.77;76.50
61528;BME280;47395;42.032;-8.634;2023-04-19T03:37:32;100230.84;;;10.76;76.21
61528;BME280;47395;42.032;-8.634;2023-04-19T03:39:33;100219.56;;;10.74;76.35
61528;BME280;47395;42.032;-8.634;2023-04-19T03:41:39;100227.34;;;10.76;76.13
61528;BME280;47395;42.032;-8.634;2023-04-19T03:43:53;100221.34;;;10.74;76.44
61528;BME280;47395;42.032;-8.634;2023-04-19T03:45:55;100217.97;;;10.72;76.32
61528;BME280;47395;42.032;-8.634;2023-04-19T03:47:56;100218.97;;;10.69;76.40
61528;BME280;47395;42.032;-8.634;2023-04-19T03:49:58;100219.75;;;10.71;76.50
61528;BME280;47395;42.032;-8.634;2023-04-19T03:52:01;100222.47;;;10.69;76.80
61528;BME280;47395;42.032;-8.634;2023-04-19T03:54:02;100214.63;;;10.68;76.88
61528;BME280;47395;42.032;-8.634;2023-04-19T03:56:04;100219.25;;;10.64;76.70
61528;BME280;47395;42.032;-8.634;2023-04-19T03:58:06;100229.69;;;10.66;76.57
61528;BME280;47395;42.032;-8.634;2023-04-19T04:00:20;100225.53;;;10.62;76.74
61528;BME280;47395;42.032;-8.634;2023-04-19T04:07:08;100228.41;;;10.57;76.25
61528;BME280;47395;42.032;-8.634;2023-04-19T04:09:10;100229.38;;;10.56;76.77
61528;BME280;47395;42.032;-8.634;2023-04-19T04:11:11;100230.56;;;10.50;76.76
61528;BME280;47395;42.032;-8.634;2023-04-19T04:13:13;100231.50;;;10.49;76.90
61528;BME280;47395;42.032;-8.634;2023-04-19T04:15:22;100226.22;;;10.49;77.54
61528;BME280;47395;42.032;-8.634;2023-04-19T04:17:26;100223.69;;;10.48;77.79
61528;BME280;47395;42.032;-8.634;2023-04-19T04:19:29;100230.56;;;10.50;77.97
61528;BME280;47395;42.032;-8.634;2023-04-19T04:21:30;100230.31;;;10.55;78.15
61528;BME280;47395;42.032;-8.634;2023-04-19T04:23:36;100226.81;;;10.54;77.70
61528;BME280;47395;42.032;-8.634;2023-04-19T04:25:41;100236.59;;;10.52;77.48
61528;BME280;47395;42.032;-8.634;2023-04-19T04:27:46;100232.16;;;10.53;77.24
61528;BME280;47395;42.032;-8.634;2023-04-19T04:29:52;100226.06;;;10.52;77.31
61528;BME280;47395;42.032;-8.634;2023-04-19T04:31:57;100232.00;;;10.56;77.31
61528;BME280;47395;42.032;-8.634;2023-04-19T04:34:02;100226.66;;;10.57;77.26
61528;BME280;47395;42.032;-8.634;2023-04-19T04:36:05;100230.03;;;10.60;77.08
61528;BME280;47395;42.032;-8.634;2023-04-19T04:38:08;100228.34;;;10.58;76.95
61528;BME280;47395;42.032;-8.634;2023-04-19T04:40:12;100227.47;;;10.58;76.52
61528;BME280;47395;42.032;-8.634;2023-04-19T04:42:13;100233.03;;;10.53;76.30
61528;BME280;47395;42.032;-8.634;2023-04-19T04:44:14;100229.63;;;10.51;76.32
61528;BME280;47395;42.032;-8.634;2023-04-19T04:46:18;100235.06;;;10.48;76.38
61528;BME280;47395;42.032;-8.634;2023-04-19T04:48:20;100238.94;;;10.41;76.00
61528;BME280;47395;42.032;-8.634;2023-04-19T04:50:21;100251.53;;;10.36;76.02
61528;BME280;47395;42.032;-8.634;2023-04-19T04:52:24;100244.47;;;10.20;76.47
61528;BME280;47395;42.032;-8.634;2023-04-19T04:54:33;100245.31;;;10.21;76.78
61528;BME280;47395;42.032;-8.634;2023-04-19T04:56:35;100246.44;;;10.16;77.28
61528;BME280;47395;42.032;-8.634;2023-04-19T04:58:36;100252.47;;;10.18;77.47
61528;BME280;47395;42.032;-8.634;2023-04-19T05:00:40;100250.81;;;10.16;77.06
61528;BME280;47395;42.032;-8.634;2023-04-19T05:02:43;100250.16;;;10.12;76.83
61528;BME280;47395;42.032;-8.634;2023-04-19T05:04:44;100253.81;;;10.10;76.84
61528;BME280;47395;42.032;-8.634;2023-04-19T05:06:47;100256.59;;;10.06;76.67
61528;BME280;47395;42.032;-8.634;2023-04-19T05:08:55;100250.66;;;10.03;76.35
61528;BME280;47395;42.032;-8.634;2023-04-19T05:11:05;100256.78;;;10.03;75.84
61528;BME280;47395;42.032;-8.634;2023-04-19T05:13:06;100260.50;;;9.99;76.02
61528;BME280;47395;42.032;-8.634;2023-04-19T05:15:09;100255.31;;;9.98;76.11
61528;BME280;47395;42.032;-8.634;2023-04-19T05:17:12;100246.75;;;9.94;76.15
61528;BME280;47395;42.032;-8.634;2023-04-19T05:19:15;100255.50;;;9.95;75.72
61528;BME280;47395;42.032;-8.634;2023-04-19T05:21:21;100255.81;;;9.88;75.76
61528;BME280;47395;42.032;-8.634;2023-04-19T05:23:22;100257.59;;;9.88;75.86
61528;BME280;47395;42.032;-8.634;2023-04-19T05:25:25;100253.94;;;9.90;76.02
61528;BME280;47395;42.032;-8.634;2023-04-19T05:27:27;100253.13;;;9.90;76.02
61528;BME280;47395;42.032;-8.634;2023-04-19T05:29:28;100255.03;;;9.86;75.38
61528;BME280;47395;42.032;-8.634;2023-04-19T05:31:30;100267.19;;;9.89;75.55
61528;BME280;47395;42.032;-8.634;2023-04-19T05:33:52;100263.81;;;9.87;75.93
61528;BME280;47395;42.032;-8.634;2023-04-19T05:35:53;100262.09;;;9.86;75.85
61528;BME280;47395;42.032;-8.634;2023-04-19T05:37:54;100267.38;;;9.86;75.97
61528;BME280;47395;42.032;-8.634;2023-04-19T05:39:55;100265.66;;;9.85;75.53
61528;BME280;47395;42.032;-8.634;2023-04-19T05:41:59;100266.59;;;9.84;75.63
61528;BME280;47395;42.032;-8.634;2023-04-19T05:44:00;100269.41;;;9.81;75.67
61528;BME280;47395;42.032;-8.634;2023-04-19T05:46:01;100270.16;;;9.83;75.97
61528;BME280;47395;42.032;-8.634;2023-04-19T05:48:02;100266.59;;;9.84;75.61
61528;BME280;47395;42.032;-8.634;2023-04-19T05:50:23;100267.53;;;9.83;75.37
61528;BME280;47395;42.032;-8.634;2023-04-19T05:52:50;100272.88;;;9.81;75.29
61528;BME280;47395;42.032;-8.634;2023-04-19T05:54:51;100284.16;;;9.83;75.12
61528;BME280;47395;42.032;-8.634;2023-04-19T05:56:52;100282.44;;;9.82;75.37
61528;BME280;47395;42.032;-8.634;2023-04-19T05:58:52;100282.22;;;9.87;75.46
61528;BME280;47395;42.032;-8.634;2023-04-19T06:00:56;100281.28;;;9.88;75.28
61528;BME280;47395;42.032;-8.634;2023-04-19T06:02:57;100276.81;;;9.90;75.44
61528;BME280;47395;42.032;-8.634;2023-04-19T06:04:58;100279.25;;;9.93;75.28
61528;BME280;47395;42.032;-8.634;2023-04-19T06:07:00;100279.16;;;9.95;75.20
61528;BME280;47395;42.032;-8.634;2023-04-19T06:09:01;100283.25;;;10.00;74.99
61528;BME280;47395;42.032;-8.634;2023-04-19T06:11:03;100297.81;;;10.08;74.92
61528;BME280;47395;42.032;-8.634;2023-04-19T06:13:04;100285.41;;;10.10;74.89
61528;BME280;47395;42.032;-8.634;2023-04-19T06:15:05;100292.13;;;10.15;74.38
61528;BME280;47395;42.032;-8.634;2023-04-19T06:17:07;100289.31;;;10.18;74.59
61528;BME280;47395;42.032;-8.634;2023-04-19T06:19:08;100285.75;;;10.19;74.02
61528;BME280;47395;42.032;-8.634;2023-04-19T06:21:09;100293.00;;;10.32;73.90
61528;BME280;47395;42.032;-8.634;2023-04-19T06:23:10;100292.50;;;11.04;73.08
61528;BME280;47395;42.032;-8.634;2023-04-19T06:25:12;100299.59;;;12.78;66.27
61528;BME280;47395;42.032;-8.634;2023-04-19T06:27:15;100289.59;;;14.53;60.30
61528;BME280;47395;42.032;-8.634;2023-04-19T06:29:16;100288.22;;;16.02;55.70
61528;BME280;47395;42.032;-8.634;2023-04-19T06:31:19;100288.53;;;17.20;51.82
61528;BME280;47395;42.032;-8.634;2023-04-19T06:33:20;100287.78;;;18.13;49.05
61528;BME280;47395;42.032;-8.634;2023-04-19T06:35:21;100291.41;;;19.02;46.67
61528;BME280;47395;42.032;-8.634;2023-04-19T06:37:23;100292.00;;;19.74;44.88
61528;BME280;47395;42.032;-8.634;2023-04-19T06:39:24;100287.47;;;20.22;43.48
61528;BME280;47395;42.032;-8.634;2023-04-19T06:41:26;100296.41;;;20.59;42.23
61528;BME280;47395;42.032;-8.634;2023-04-19T06:43:27;100292.25;;;20.83;41.77
61528;BME280;47395;42.032;-8.634;2023-04-19T06:45:28;100302.63;;;21.41;40.42
61528;BME280;47395;42.032;-8.634;2023-04-19T06:47:30;100303.94;;;21.81;39.33
61528;BME280;47395;42.032;-8.634;2023-04-19T06:49:31;100309.09;;;22.17;38.56
61528;BME280;47395;42.032;-8.634;2023-04-19T06:51:32;100299.03;;;22.71;37.75
61528;BME280;47395;42.032;-8.634;2023-04-19T06:53:33;100297.03;;;22.73;36.89
61528;BME280;47395;42.032;-8.634;2023-04-19T06:55:35;100302.75;;;23.20;36.32
61528;BME280;47395;42.032;-8.634;2023-04-19T06:57:36;100306.59;;;23.67;35.39
61528;BME280;47395;42.032;-8.634;2023-04-19T06:59:37;100317.06;;;24.02;34.75
61528;BME280;47395;42.032;-8.634;2023-04-19T07:01:39;100302.53;;;24.28;34.36
61528;BME280;47395;42.032;-8.634;2023-04-19T07:03:40;100308.78;;;24.75;33.05
61528;BME280;47395;42.032;-8.634;2023-04-19T07:05:41;100310.19;;;25.18;32.27
61528;BME280;47395;42.032;-8.634;2023-04-19T07:07:42;100310.41;;;25.47;31.99
61528;BME280;47395;42.032;-8.634;2023-04-19T07:09:43;100318.09;;;25.88;32.32
61528;BME280;47395;42.032;-8.634;2023-04-19T07:11:44;100314.97;;;26.37;31.32
61528;BME280;47395;42.032;-8.634;2023-04-19T07:13:47;100321.13;;;26.45;30.97
61528;BME280;47395;42.032;-8.634;2023-04-19T07:15:49;100318.31;;;26.54;30.96
61528;BME280;47395;42.032;-8.634;2023-04-19T07:17:49;100319.03;;;27.06;31.44
61528;BME280;47395;42.032;-8.634;2023-04-19T07:19:50;100312.56;;;27.58;31.32
61528;BME280;47395;42.032;-8.634;2023-04-19T07:21:52;100321.34;;;27.60;31.04
61528;BME280;47395;42.032;-8.634;2023-04-19T07:23:53;100328.91;;;28.13;30.36
61528;BME280;47395;42.032;-8.634;2023-04-19T07:25:54;100318.03;;;28.56;30.80
61528;BME280;47395;42.032;-8.634;2023-04-19T07:27:55;100316.88;;;28.99;30.43
61528;BME280;47395;42.032;-8.634;2023-04-19T07:29:56;100323.53;;;29.50;28.62
61528;BME280;47395;42.032;-8.634;2023-04-19T07:31:57;100324.75;;;29.75;27.64
61528;BME280;47395;42.032;-8.634;2023-04-19T07:34:00;100332.94;;;29.68;28.23
61528;BME280;47395;42.032;-8.634;2023-04-19T07:36:01;100321.88;;;29.69;27.23
61528;BME280;47395;42.032;-8.634;2023-04-19T07:38:02;100325.25;;;29.31;29.71
61528;BME280;47395;42.032;-8.634;2023-04-19T07:40:03;100330.44;;;29.73;28.49
61528;BME280;47395;42.032;-8.634;2023-04-19T07:42:05;100332.63;;;30.03;28.79
61528;BME280;47395;42.032;-8.634;2023-04-19T07:44:07;100338.59;;;30.32;27.88
61528;BME280;47395;42.032;-8.634;2023-04-19T07:46:09;100328.22;;;30.61;27.34
61528;BME280;47395;42.032;-8.634;2023-04-19T07:48:10;100332.72;;;30.42;28.54
61528;BME280;47395;42.032;-8.634;2023-04-19T07:50:11;100328.50;;;30.85;27.16
61528;BME280;47395;42.032;-8.634;2023-04-19T07:52:12;100339.53;;;30.91;26.83
61528;BME280;47395;42.032;-8.634;2023-04-19T07:54:37;100334.16;;;31.79;27.04
61528;BME280;47395;42.032;-8.634;2023-04-19T07:58:01;100332.72;;;31.76;27.93
61528;BME280;47395;42.032;-8.634;2023-04-19T08:00:48;100341.88;;;32.20;25.63
61528;BME280;47395;42.032;-8.634;2023-04-19T08:02:49;100337.19;;;32.27;26.58
61528;BME280;47395;42.032;-8.634;2023-04-19T08:04:50;100345.94;;;32.78;26.80
61528;BME280;47395;42.032;-8.634;2023-04-19T08:06:51;100345.13;;;32.90;25.62
61528;BME280;47395;42.032;-8.634;2023-04-19T08:08:52;100347.91;;;32.59;26.04
61528;BME280;47395;42.032;-8.634;2023-04-19T08:10:53;100343.75;;;32.56;25.48
61528;BME280;47395;42.032;-8.634;2023-04-19T08:12:54;100344.19;;;32.96;26.20
61528;BME280;47395;42.032;-8.634;2023-04-19T08:14:57;100352.38;;;33.63;25.14
61528;BME280;47395;42.032;-8.634;2023-04-19T08:16:57;100349.00;;;34.67;23.15
61528;BME280;47395;42.032;-8.634;2023-04-19T08:18:58;100357.28;;;34.02;23.85
61528;BME280;47395;42.032;-8.634;2023-04-19T08:20:59;100356.22;;;34.44;22.93
61528;BME280;47395;42.032;-8.634;2023-04-19T08:23:00;100352.84;;;33.59;23.60
61528;BME280;47395;42.032;-8.634;2023-04-19T08:25:01;100359.16;;;34.83;23.08
61528;BME280;47395;42.032;-8.634;2023-04-19T08:27:03;100357.41;;;34.94;23.29
61528;BME280;47395;42.032;-8.634;2023-04-19T08:29:04;100354.22;;;35.14;22.64
61528;BME280;47395;42.032;-8.634;2023-04-19T08:31:05;100363.63;;;34.72;23.48
61528;BME280;47395;42.032;-8.634;2023-04-19T08:33:07;100357.22;;;34.67;23.22
61528;BME280;47395;42.032;-8.634;2023-04-19T08:35:08;100362.63;;;34.79;23.94
61528;BME280;47395;42.032;-8.634;2023-04-19T08:37:12;100359.44;;;33.88;23.76
61528;BME280;47395;42.032;-8.634;2023-04-19T08:39:13;100362.50;;;35.02;22.51
61528;BME280;47395;42.032;-8.634;2023-04-19T08:41:17;100355.63;;;35.74;22.83
61528;BME280;47395;42.032;-8.634;2023-04-19T08:43:19;100359.66;;;36.11;21.21
61528;BME280;47395;42.032;-8.634;2023-04-19T08:45:20;100358.81;;;36.55;21.88
61528;BME280;47395;42.032;-8.634;2023-04-19T08:47:27;100366.25;;;36.60;20.22
61528;BME280;47395;42.032;-8.634;2023-04-19T08:49:28;100363.16;;;36.78;20.27
61528;BME280;47395;42.032;-8.634;2023-04-19T08:51:31;100376.84;;;36.45;21.77
61528;BME280;47395;42.032;-8.634;2023-04-19T08:53:33;100367.63;;;36.84;20.58
61528;BME280;47395;42.032;-8.634;2023-04-19T08:55:34;100371.50;;;36.89;21.02
61528;BME280;47395;42.032;-8.634;2023-04-19T08:57:36;100364.47;;;37.79;21.03
61528;BME280;47395;42.032;-8.634;2023-04-19T08:59:38;100372.81;;;37.14;19.38
61528;BME280;47395;42.032;-8.634;2023-04-19T09:01:39;100369.84;;;37.58;20.82
61528;BME280;47395;42.032;-8.634;2023-04-19T09:03:43;100366.56;;;36.36;19.74
61528;BME280;47395;42.032;-8.634;2023-04-19T09:05:47;100363.16;;;35.84;20.77
61528;BME280;47395;42.032;-8.634;2023-04-19T09:07:51;100368.47;;;36.85;20.89
61528;BME280;47395;42.032;-8.634;2023-04-19T09:13:08;100366.41;;;37.84;21.12
61528;BME280;47395;42.032;-8.634;2023-04-19T09:15:09;100371.69;;;38.01;19.72
61528;BME280;47395;42.032;-8.634;2023-04-19T09:17:25;100373.22;;;38.35;19.34
61528;BME280;47395;42.032;-8.634;2023-04-19T09:19:44;100379.88;;;38.49;18.79
61528;BME280;47395;42.032;-8.634;2023-04-19T09:21:47;100379.66;;;38.87;18.30
61528;BME280;47395;42.032;-8.634;2023-04-19T09:24:01;100381.44;;;39.91;18.00
61528;BME280;47395;42.032;-8.634;2023-04-19T09:26:05;100379.47;;;40.02;16.97
61528;BME280;47395;42.032;-8.634;2023-04-19T09:31:58;100375.47;;;39.63;17.24
61528;BME280;47395;42.032;-8.634;2023-04-19T09:34:17;100378.81;;;39.54;18.61
61528;BME280;47395;42.032;-8.634;2023-04-19T09:36:29;100374.16;;;38.93;17.92
61528;BME280;47395;42.032;-8.634;2023-04-19T09:38:46;100381.00;;;40.34;15.74
61528;BME280;47395;42.032;-8.634;2023-04-19T09:40:47;100382.34;;;40.37;16.06
61528;BME280;47395;42.032;-8.634;2023-04-19T09:42:49;100379.38;;;39.51;18.57
61528;BME280;47395;42.032;-8.634;2023-04-19T09:45:00;100374.75;;;40.18;16.67
61528;BME280;47395;42.032;-8.634;2023-04-19T09:47:24;100379.66;;;40.21;16.29
61528;BME280;47395;42.032;-8.634;2023-04-19T09:49:25;100381.25;;;40.38;17.42
61528;BME280;47395;42.032;-8.634;2023-04-19T09:51:39;100377.84;;;39.95;18.15
61528;BME280;47395;42.032;-8.634;2023-04-19T09:53:40;100384.91;;;39.25;16.56
61528;BME280;47395;42.032;-8.634;2023-04-19T09:55:43;100384.59;;;39.42;19.23
61528;BME280;47395;42.032;-8.634;2023-04-19T09:57:45;100384.31;;;39.02;18.53
61528;BME280;47395;42.032;-8.634;2023-04-19T09:59:46;100390.31;;;38.47;19.21
61528;BME280;47395;42.032;-8.634;2023-04-19T10:01:53;100391.78;;;39.12;19.70
61528;BME280;47395;42.032;-8.634;2023-04-19T10:03:56;100393.84;;;39.88;16.44
61528;BME280;47395;42.032;-8.634;2023-04-19T10:05:57;100390.31;;;39.77;19.34
61528;BME280;47395;42.032;-8.634;2023-04-19T10:08:01;100395.09;;;39.51;16.53
61528;BME280;47395;42.032;-8.634;2023-04-19T10:10:03;100391.19;;;39.57;18.68
61528;BME280;47395;42.032;-8.634;2023-04-19T10:12:06;100399.16;;;39.74;16.89
61528;BME280;47395;42.032;-8.634;2023-04-19T10:14:09;100396.06;;;39.91;16.27
61528;BME280;47395;42.032;-8.634;2023-04-19T10:16:10;100393.91;;;40.39;15.48
61528;BME280;47395;42.032;-8.634;2023-04-19T10:18:11;100381.47;;;40.52;17.23
61528;BME280;47395;42.032;-8.634;2023-04-19T10:20:18;100394.75;;;40.84;16.96
61528;BME280;47395;42.032;-8.634;2023-04-19T10:22:20;100393.22;;;40.17;16.04
61528;BME280;47395;42.032;-8.634;2023-04-19T10:24:22;100390.94;;;38.01;18.57
61528;BME280;47395;42.032;-8.634;2023-04-19T10:26:23;100387.78;;;38.25;19.81
61528;BME280;47395;42.032;-8.634;2023-04-19T10:28:27;100391.75;;;38.81;16.95
61528;BME280;47395;42.032;-8.634;2023-04-19T10:30:28;100376.69;;;36.57;18.81
61528;BME280;47395;42.032;-8.634;2023-04-19T10:32:37;100380.94;;;38.53;17.00
61528;BME280;47395;42.032;-8.634;2023-04-19T10:34:41;100381.81;;;38.59;17.53
61528;BME280;47395;42.032;-8.634;2023-04-19T10:36:44;100375.75;;;39.72;17.13
61528;BME280;47395;42.032;-8.634;2023-04-19T10:38:47;100379.22;;;39.93;16.91
61528;BME280;47395;42.032;-8.634;2023-04-19T10:40:56;100382.19;;;40.17;17.43
61528;BME280;47395;42.032;-8.634;2023-04-19T10:43:30;100380.75;;;39.17;16.46
61528;BME280;47395;42.032;-8.634;2023-04-19T10:45:37;100374.22;;;40.61;16.51
61528;BME280;47395;42.032;-8.634;2023-04-19T10:47:44;100374.69;;;39.36;15.52
61528;BME280;47395;42.032;-8.634;2023-04-19T10:49:45;100363.50;;;40.04;15.94